Time;durP1;ratioP1;P1;durP2;ratioP2;P2;SDS_P1;SDS_P2;PMS_P1;PMS_P2;Temp;Humidity;BMP_temperature;BMP_pressure;BME280_temperature;BME280_humidity;BME280_pressure;Samples;Min_cycle;Max_cycle;Signal;HPM_P1;HPM_P2
2021/09/25 00:00:55;;;;;;;;;;;;;;;17.50;100.00;99028.56;5100087;28;19927;-64
2021/09/25 00:03:21;;;;;;;;;;;;;;;17.80;100.00;99025.00;5101058;28;20360;-64
2021/09/25 00:05:46;;;;;;;;;;;;;;;17.12;100.00;99026.44;5102041;28;19919;-64
2021/09/25 00:08:13;;;;;;;;;;;;;;;17.40;100.00;99035.22;5104373;28;20533;-61
2021/09/25 00:10:38;;;;;;;;;;;;;;;17.39;100.00;99023.16;5084323;28;19967;-64
2021/09/25 00:13:04;;;;;;;;;;;;;;;17.49;100.00;99019.06;5101534;28;20623;-64
2021/09/25 00:15:30;;;;;;;;;;;;;;;17.49;100.00;99013.88;5101633;28;20668;-64
2021/09/25 00:17:56;;;;;;;;;;;;;;;17.45;100.00;99022.78;5100836;28;20479;-63
2021/09/25 00:20:22;;;;;;;;;;;;;;;17.77;100.00;99020.84;5083733;28;19926;-63
2021/09/25 00:22:47;;;;;;;;;;;;;;;16.96;100.00;99020.47;5102834;28;19919;-62
2021/09/25 00:25:12;;;;;;;;;;;;;;;17.50;100.00;99020.75;5097855;28;19924;-63
2021/09/25 00:27:38;;;;;;;;;;;;;;;17.47;100.00;99018.34;5102798;28;19916;-63
2021/09/25 00:30:04;;;;;;;;;;;;;;;17.24;100.00;99029.25;5100112;28;19919;-62
2021/09/25 00:32:30;;;;;;;;;;;;;;;17.24;100.00;99018.84;5100449;28;19927;-62
2021/09/25 00:34:55;;;;;;;;;;;;;;;17.27;100.00;99013.47;5100507;28;19912;-62
2021/09/25 00:37:20;;;;;;;;;;;;;;;17.45;100.00;99014.16;5098997;28;20002;-64
2021/09/25 00:39:46;;;;;;;;;;;;;;;17.53;100.00;99020.53;5099831;28;19924;-63
2021/09/25 00:42:11;;;;;;;;;;;;;;;17.17;100.00;99020.97;5099309;28;19950;-63
2021/09/25 00:44:36;;;;;;;;;;;;;;;17.32;100.00;99019.25;5099640;28;19922;-63
2021/09/25 00:47:02;;;;;;;;;;;;;;;16.79;100.00;99023.19;5098153;28;19916;-62
2021/09/25 00:49:27;;;;;;;;;;;;;;;16.95;100.00;99018.81;5080098;28;19915;-64
2021/09/25 00:51:52;;;;;;;;;;;;;;;16.98;100.00;99026.41;5097802;28;19988;-63
2021/09/25 00:54:18;;;;;;;;;;;;;;;17.22;100.00;99025.91;5100678;28;19915;-62
2021/09/25 00:56:44;;;;;;;;;;;;;;;16.66;100.00;99026.47;5097523;28;19923;-64
2021/09/25 00:59:10;;;;;;;;;;;;;;;17.11;100.00;99022.19;5098923;28;19923;-61
2021/09/25 01:01:35;;;;;;;;;;;;;;;17.38;100.00;99021.50;5079667;28;19916;-62
2021/09/25 01:04:00;;;;;;;;;;;;;;;17.28;100.00;99017.75;5083385;28;19942;-61
2021/09/25 01:06:26;;;;;;;;;;;;;;;17.49;100.00;99013.00;5063350;28;19943;-63
2021/09/25 01:08:51;;;;;;;;;;;;;;;17.04;100.00;99015.66;5069411;28;20002;-63
2021/09/25 01:11:16;;;;;;;;;;;;;;;17.02;100.00;99022.72;5075383;28;19962;-63
2021/09/25 01:13:42;;;;;;;;;;;;;;;16.98;100.00;99017.78;5078619;28;20695;-61
2021/09/25 01:16:07;;;;;;;;;;;;;;;17.12;100.00;99026.44;5078904;28;19916;-63
2021/09/25 01:18:32;;;;;;;;;;;;;;;17.08;100.00;99022.38;5079137;28;19965;-63
2021/09/25 01:21:08;;;;;;;;;;;;;;;16.85;100.00;99022.84;5079877;28;19999;-63
2021/09/25 01:23:34;;;;;;;;;;;;;;;17.09;100.00;99021.44;5076408;28;19971;-63
2021/09/25 01:25:59;;;;;;;;;;;;;;;17.33;100.00;99018.28;5080044;28;20528;-64
2021/09/25 01:28:25;;;;;;;;;;;;;;;17.41;100.00;99026.50;5078353;28;19916;-63
2021/09/25 01:30:50;;;;;;;;;;;;;;;17.20;100.00;99022.59;5078017;28;19930;-63
2021/09/25 01:33:22;;;;;;;;;;;;;;;17.32;100.00;99021.84;5078963;28;20023;-64
2021/09/25 01:35:47;;;;;;;;;;;;;;;17.43;100.00;99026.41;5077531;28;20593;-63
2021/09/25 01:38:13;;;;;;;;;;;;;;;17.48;100.00;99027.81;5078413;28;19981;-63
2021/09/25 01:40:38;;;;;;;;;;;;;;;17.21;100.00;99026.84;5075927;28;19967;-62
2021/09/25 01:43:03;;;;;;;;;;;;;;;17.25;100.00;99025.75;5079886;28;19916;-63
2021/09/25 01:45:29;;;;;;;;;;;;;;;17.06;100.00;99025.97;5077965;28;19931;-62
2021/09/25 01:47:55;;;;;;;;;;;;;;;17.18;100.00;99024.44;5079517;28;19965;-63
2021/09/25 01:50:20;;;;;;;;;;;;;;;16.55;100.00;99031.44;5077742;28;19920;-63
2021/09/25 01:52:46;;;;;;;;;;;;;;;16.80;100.00;99022.28;5079376;28;20487;-63
2021/09/25 01:55:11;;;;;;;;;;;;;;;17.12;100.00;99026.44;5080699;28;19912;-64
2021/09/25 01:57:37;;;;;;;;;;;;;;;16.75;100.00;99032.09;5080781;28;20602;-61
2021/09/25 02:00:02;;;;;;;;;;;;;;;16.77;100.00;99025.03;5077447;28;19912;-62
2021/09/25 02:02:28;;;;;;;;;;;;;;;17.08;100.00;99029.31;5077315;28;19916;-63
2021/09/25 02:04:53;;;;;;;;;;;;;;;17.19;100.00;99032.13;5077481;28;19989;-64
2021/09/25 02:07:19;;;;;;;;;;;;;;;17.08;100.00;99027.56;5079142;28;19920;-64
2021/09/25 02:09:44;;;;;;;;;;;;;;;17.21;100.00;99032.03;5079294;28;19912;-63
2021/09/25 02:12:10;;;;;;;;;;;;;;;16.66;100.00;99033.44;5077177;28;19970;-64
2021/09/25 02:14:36;;;;;;;;;;;;;;;16.65;100.00;99031.75;5079571;28;19969;-62
2021/09/25 02:17:01;;;;;;;;;;;;;;;16.91;100.00;99025.09;5079009;28;19924;-63
2021/09/25 02:19:26;;;;;;;;;;;;;;;16.89;100.00;99029.53;5078135;28;20340;-62
2021/09/25 02:21:52;;;;;;;;;;;;;;;16.48;100.00;99020.53;5079852;28;19915;-61
2021/09/25 02:24:17;;;;;;;;;;;;;;;16.69;100.00;99023.72;5080784;28;19916;-62
2021/09/25 02:26:42;;;;;;;;;;;;;;;16.72;100.00;99020.91;5077818;28;19951;-63
2021/09/25 02:29:08;;;;;;;;;;;;;;;17.08;100.00;99022.38;5079600;28;19989;-64
2021/09/25 02:31:33;;;;;;;;;;;;;;;17.01;100.00;99021.03;5080162;28;19912;-65
2021/09/25 02:33:58;;;;;;;;;;;;;;;16.43;100.00;99019.13;5077636;28;19986;-64
2021/09/25 02:36:25;;;;;;;;;;;;;;;16.42;100.00;99015.69;5079650;28;19920;-64
2021/09/25 02:38:50;;;;;;;;;;;;;;;16.55;100.00;99013.22;5070955;28;19917;-62
2021/09/25 02:41:15;;;;;;;;;;;;;;;16.66;100.00;99018.66;5073395;28;19924;-65
2021/09/25 02:43:41;;;;;;;;;;;;;;;16.47;100.00;99012.84;5071075;28;20372;-63
2021/09/25 02:46:06;;;;;;;;;;;;;;;16.62;100.00;99006.75;5074214;28;19934;-63
2021/09/25 02:48:32;;;;;;;;;;;;;;;16.79;100.00;99002.38;5074657;28;19920;-62
2021/09/25 02:50:57;;;;;;;;;;;;;;;16.60;100.00;99005.16;5057506;28;19916;-63
2021/09/25 02:53:23;;;;;;;;;;;;;;;16.78;100.00;99001.50;5073398;28;19920;-61
2021/09/25 02:55:48;;;;;;;;;;;;;;;16.38;100.00;99005.56;5069196;28;20378;-61
2021/09/25 02:58:14;;;;;;;;;;;;;;;16.56;100.00;99006.25;5075581;28;20049;-60
2021/09/25 03:00:40;;;;;;;;;;;;;;;16.73;100.00;99004.38;5077393;28;20440;-61
2021/09/25 03:03:05;;;;;;;;;;;;;;;16.37;100.00;99011.66;5076526;28;19939;-60
2021/09/25 03:05:30;;;;;;;;;;;;;;;16.56;100.00;99007.13;5087396;28;19928;-60
2021/09/25 03:07:56;;;;;;;;;;;;;;;16.65;100.00;99011.81;5097418;28;19926;-60
2021/09/25 03:10:21;;;;;;;;;;;;;;;16.98;100.00;99003.00;5096125;28;19916;-61
2021/09/25 03:12:46;;;;;;;;;;;;;;;16.38;100.00;99002.97;5097899;28;19912;-60
2021/09/25 03:15:12;;;;;;;;;;;;;;;16.33;100.00;99000.63;5097797;28;20322;-60
2021/09/25 03:17:37;;;;;;;;;;;;;;;16.51;100.00;99006.53;5098460;28;19920;-61
2021/09/25 03:20:03;;;;;;;;;;;;;;;16.60;100.00;99013.78;5098034;28;19911;-61
2021/09/25 03:22:29;;;;;;;;;;;;;;;16.56;100.00;99001.91;5097092;28;19915;-61
2021/09/25 03:24:54;;;;;;;;;;;;;;;16.52;100.00;99000.41;5081800;28;19915;-60
2021/09/25 03:27:19;;;;;;;;;;;;;;;16.34;100.00;98996.25;5097051;28;19920;-61
2021/09/25 03:29:45;;;;;;;;;;;;;;;16.28;100.00;98992.22;5098901;28;19919;-61
2021/09/25 03:32:10;;;;;;;;;;;;;;;15.77;100.00;99002.75;5077907;28;19955;-61
2021/09/25 03:34:35;;;;;;;;;;;;;;;15.56;100.00;99003.88;5095275;28;20167;-60
2021/09/25 03:37:01;;;;;;;;;;;;;;;16.06;100.00;99002.97;5097008;28;20297;-61
2021/09/25 03:39:26;;;;;;;;;;;;;;;16.00;100.00;99003.28;5096759;28;19922;-61
2021/09/25 03:41:53;;;;;;;;;;;;;;;15.94;100.00;98998.41;5097128;28;19927;-61
2021/09/25 03:44:18;;;;;;;;;;;;;;;16.02;100.00;99007.47;5097720;28;19924;-61
2021/09/25 03:46:43;;;;;;;;;;;;;;;16.14;100.00;98995.56;5096162;28;20289;-61
2021/09/25 03:49:09;;;;;;;;;;;;;;;16.27;100.00;99001.78;5100037;28;19919;-61
2021/09/25 03:51:35;;;;;;;;;;;;;;;16.11;100.00;99006.16;5095851;28;19964;-61
2021/09/25 03:54:00;;;;;;;;;;;;;;;16.35;100.00;99011.75;5090495;28;19992;-61
2021/09/25 03:56:26;;;;;;;;;;;;;;;16.24;100.00;99007.16;5089943;28;20376;-61
2021/09/25 03:58:51;;;;;;;;;;;;;;;16.42;100.00;99002.69;5096471;28;19942;-61
2021/09/25 04:01:16;;;;;;;;;;;;;;;16.66;100.00;99003.06;5096003;28;19950;-61
2021/09/25 04:03:42;;;;;;;;;;;;;;;16.58;100.00;99005.28;5078302;28;20007;-61
2021/09/25 04:06:07;;;;;;;;;;;;;;;16.58;100.00;99010.47;5096190;28;20412;-61
2021/09/25 04:08:35;;;;;;;;;;;;;;;16.56;100.00;99007.13;5094359;28;20290;-61
2021/09/25 04:11:00;;;;;;;;;;;;;;;16.68;100.00;99011.63;5096556;28;20407;-61
2021/09/25 04:13:25;;;;;;;;;;;;;;;16.56;100.00;99007.13;5095120;28;19947;-61
2021/09/25 04:15:51;;;;;;;;;;;;;;;16.64;100.00;99010.09;5097396;28;19915;-61
2021/09/25 04:18:16;;;;;;;;;;;;;;;16.69;100.00;99021.09;5094980;28;20328;-60
2021/09/25 04:20:41;;;;;;;;;;;;;;;16.90;100.00;99013.88;5096226;28;19997;-61
2021/09/25 04:23:07;;;;;;;;;;;;;;;16.75;100.00;99013.88;5094320;28;19922;-61
2021/09/25 04:25:32;;;;;;;;;;;;;;;16.76;100.00;99012.94;5097266;28;20293;-60
2021/09/25 04:27:59;;;;;;;;;;;;;;;17.05;100.00;99017.31;5098289;28;20664;-61
2021/09/25 04:30:24;;;;;;;;;;;;;;;16.56;100.00;99008.84;5101544;28;19916;-60
2021/09/25 04:32:49;;;;;;;;;;;;;;;16.29;100.00;99015.53;5099980;28;19927;-61
2021/09/25 04:35:15;;;;;;;;;;;;;;;16.49;100.00;99021.41;5101567;28;19916;-61
2021/09/25 04:37:40;;;;;;;;;;;;;;;16.67;100.00;99014.28;5099430;28;19927;-61
2021/09/25 04:40:06;;;;;;;;;;;;;;;16.34;100.00;99014.44;5098681;28;19919;-61
2021/09/25 04:42:31;;;;;;;;;;;;;;;16.37;100.00;99017.69;5098970;28;19919;-61
2021/09/25 04:44:56;;;;;;;;;;;;;;;16.80;100.00;99012.69;5099231;28;20019;-61
2021/09/25 04:47:22;;;;;;;;;;;;;;;16.46;100.00;99005.94;5099435;28;21268;-60
2021/09/25 04:49:47;;;;;;;;;;;;;;;16.52;100.00;99021.22;5100192;28;19966;-61
2021/09/25 04:52:12;;;;;;;;;;;;;;;16.34;100.00;99017.88;5099042;28;20357;-61
2021/09/25 04:54:38;;;;;;;;;;;;;;;16.05;100.00;99016.84;5099787;28;19919;-61
2021/09/25 04:57:03;;;;;;;;;;;;;;;16.71;100.00;99008.81;5099598;28;19915;-61
2021/09/25 04:59:29;;;;;;;;;;;;;;;16.71;100.00;99003.63;5099554;28;19919;-60
2021/09/25 05:01:54;;;;;;;;;;;;;;;16.54;100.00;99008.97;5094985;28;19926;-60
2021/09/25 05:04:20;;;;;;;;;;;;;;;16.69;100.00;99002.91;5100027;28;19920;-61
2021/09/25 05:06:45;;;;;;;;;;;;;;;16.69;100.00;99005.50;5099252;28;19920;-61
2021/09/25 05:09:11;;;;;;;;;;;;;;;17.22;100.00;99005.09;5101765;28;19919;-61
2021/09/25 05:11:36;;;;;;;;;;;;;;;16.64;100.00;99015.31;5098473;28;19926;-61
2021/09/25 05:14:01;;;;;;;;;;;;;;;16.73;100.00;99017.38;5100023;28;19911;-60
2021/09/25 05:16:26;;;;;;;;;;;;;;;16.71;100.00;99021.00;5079523;28;20322;-61
2021/09/25 05:18:52;;;;;;;;;;;;;;;16.91;100.00;99023.31;5096711;28;19928;-61
2021/09/25 05:21:17;;;;;;;;;;;;;;;17.13;100.00;99022.94;5092548;28;20270;-61
2021/09/25 05:23:42;;;;;;;;;;;;;;;16.69;100.00;99010.72;5079417;28;19920;-61
2021/09/25 05:26:09;;;;;;;;;;;;;;;16.75;100.00;99024.28;5092893;28;19926;-61
2021/09/25 05:28:35;;;;;;;;;;;;;;;16.65;100.00;99022.19;5092596;28;19920;-61
2021/09/25 05:31:00;;;;;;;;;;;;;;;16.90;100.00;99023.41;5070448;28;19930;-61
2021/09/25 05:33:26;;;;;;;;;;;;;;;17.04;100.00;99023.47;5076021;28;20261;-60
2021/09/25 05:35:51;;;;;;;;;;;;;;;17.05;100.00;99027.72;5095975;28;19916;-60
2021/09/25 05:38:16;;;;;;;;;;;;;;;17.01;100.00;99028.84;5096526;28;21247;-61
2021/09/25 05:40:42;;;;;;;;;;;;;;;17.18;100.00;99024.44;5096127;28;19916;-61
2021/09/25 05:43:07;;;;;;;;;;;;;;;17.11;100.00;99029.97;5094987;28;20379;-61
2021/09/25 05:45:32;;;;;;;;;;;;;;;17.05;100.00;99032.94;5094115;28;19923;-61
2021/09/25 05:47:58;;;;;;;;;;;;;;;17.22;100.00;99031.09;5094853;28;19916;-61
2021/09/25 05:50:23;;;;;;;;;;;;;;;17.21;100.00;99037.25;5091368;28;20260;-61
2021/09/25 05:52:48;;;;;;;;;;;;;;;17.25;100.00;99039.59;5077614;28;19912;-61
2021/09/25 05:55:14;;;;;;;;;;;;;;;17.18;100.00;99034.84;5096001;28;19927;-60
2021/09/25 05:57:43;;;;;;;;;;;;;;;17.01;100.00;99034.03;5079771;28;19916;-60
2021/09/25 06:00:08;;;;;;;;;;;;;;;17.17;100.00;99033.16;5096875;28;19916;-60
2021/09/25 06:02:36;;;;;;;;;;;;;;;17.14;100.00;99035.00;5094619;28;20383;-61
2021/09/25 06:05:03;;;;;;;;;;;;;;;17.08;100.00;99029.31;5095486;28;19931;-61
2021/09/25 06:07:29;;;;;;;;;;;;;;;17.19;100.00;99033.91;5078326;28;19978;-61
2021/09/25 06:09:54;;;;;;;;;;;;;;;17.14;100.00;99029.78;5097592;28;20038;-61
2021/09/25 06:12:19;;;;;;;;;;;;;;;17.17;100.00;99038.34;5093342;28;19916;-61
2021/09/25 06:14:45;;;;;;;;;;;;;;;17.32;100.00;99032.25;5095963;28;20621;-61
2021/09/25 06:17:11;;;;;;;;;;;;;;;17.39;100.00;99038.78;5091671;28;19927;-61
2021/09/25 06:19:37;;;;;;;;;;;;;;;17.29;100.00;99037.66;5095105;28;20507;-61
2021/09/25 06:22:02;;;;;;;;;;;;;;;17.68;100.00;99037.03;5093859;28;20267;-61
2021/09/25 06:24:28;;;;;;;;;;;;;;;17.75;100.00;99042.69;5094752;28;19924;-61
2021/09/25 06:26:53;;;;;;;;;;;;;;;17.50;100.00;99046.78;5095500;28;19916;-60
2021/09/25 06:29:19;;;;;;;;;;;;;;;17.45;100.00;99043.63;5097346;28;19912;-61
2021/09/25 06:31:44;;;;;;;;;;;;;;;17.54;100.00;99040.47;5079702;28;20282;-61
2021/09/25 06:34:09;;;;;;;;;;;;;;;17.58;100.00;99035.06;5099707;28;20003;-61
2021/09/25 06:36:40;;;;;;;;;;;;;;;17.83;100.00;99026.63;5098855;28;20333;-61
2021/09/25 06:39:05;;;;;;;;;;;;;;;17.67;100.00;99031.91;5074093;28;19916;-60
2021/09/25 06:41:31;;;;;;;;;;;;;;;17.80;100.00;99032.84;5093326;28;20434;-61
2021/09/25 06:43:56;;;;;;;;;;;;;;;17.67;100.00;99029.28;5098370;28;19920;-60
2021/09/25 06:46:21;;;;;;;;;;;;;;;17.66;100.00;99030.25;5097502;28;19918;-61
2021/09/25 06:48:49;;;;;;;;;;;;;;;17.97;100.00;99030.06;5097243;28;20365;-61
2021/09/25 06:51:16;;;;;;;;;;;;;;;17.63;100.00;99030.41;5080016;28;20284;-61
2021/09/25 06:53:41;;;;;;;;;;;;;;;17.94;100.00;99027.63;5102723;28;19920;-61
2021/09/25 06:56:06;;;;;;;;;;;;;;;17.72;100.00;99029.84;5084504;28;19916;-61
2021/09/25 06:58:32;;;;;;;;;;;;;;;17.82;100.00;99030.16;5102005;28;19919;-61
2021/09/25 07:00:57;;;;;;;;;;;;;;;17.95;100.00;99026.72;5083124;28;19989;-61
2021/09/25 07:03:22;;;;;;;;;;;;;;;17.95;100.00;99029.31;5102458;28;20312;-61
2021/09/25 07:05:48;;;;;;;;;;;;;;;18.14;100.00;99036.00;5100312;28;19924;-60
2021/09/25 07:08:13;;;;;;;;;;;;;;;17.84;100.00;99029.16;5101218;28;19916;-61
2021/09/25 07:10:38;;;;;;;;;;;;;;;17.95;100.00;99037.13;5067972;28;20303;-60
2021/09/25 07:13:04;;;;;;;;;;;;;;;18.03;100.00;99033.22;5102406;28;19915;-61
2021/09/25 07:15:31;;;;;;;;;;;;;;;18.06;100.00;99038.22;5101026;28;19919;-61
2021/09/25 07:17:56;;;;;;;;;;;;;;;18.18;100.00;99047.91;5084043;28;19969;-62
2021/09/25 07:20:22;;;;;;;;;;;;;;;18.03;100.00;99043.63;5102093;28;19916;-61
2021/09/25 07:22:51;;;;;;;;;;;;;;;18.24;100.00;99037.06;5102430;28;19915;-61
2021/09/25 07:25:23;;;;;;;;;;;;;;;18.27;100.00;99039.50;5102262;28;19915;-60
2021/09/25 07:27:49;;;;;;;;;;;;;;;18.35;100.00;99039.84;5101857;28;19920;-60
2021/09/25 07:30:14;;;;;;;;;;;;;;;18.27;100.00;99039.50;5077232;28;19957;-61
2021/09/25 07:32:39;;;;;;;;;;;;;;;18.38;100.00;99046.63;5071475;28;19924;-61
2021/09/25 07:35:05;;;;;;;;;;;;;;;18.45;100.00;99039.25;5063966;28;19916;-61
2021/09/25 07:37:31;;;;;;;;;;;;;;;18.40;100.00;99042.16;5079105;28;20273;-61
2021/09/25 07:39:56;;;;;;;;;;;;;;;18.41;100.00;99048.22;5079721;28;20031;-61
2021/09/25 07:42:21;;;;;;;;;;;;;;;18.53;100.00;99050.03;5080006;28;19916;-60
2021/09/25 07:44:47;;;;;;;;;;;;;;;18.55;100.00;99050.78;5064856;28;20357;-61
2021/09/25 07:47:13;;;;;;;;;;;;;;;18.80;100.00;99061.34;5068450;28;19957;-61
2021/09/25 07:49:38;;;;;;;;;;;;;;;18.66;100.00;99063.97;5064357;28;19915;-61
2021/09/25 07:52:04;;;;;;;;;;;;;;;18.88;100.00;99070.44;5078486;28;19954;-60
2021/09/25 07:54:29;;;;;;;;;;;;;;;18.69;100.00;99069.00;5072298;28;20031;-61
2021/09/25 07:56:55;;;;;;;;;;;;;;;18.85;100.00;99073.25;5096440;28;20077;-61
2021/09/25 07:59:20;;;;;;;;;;;;;;;18.62;100.00;99078.16;5099969;28;19930;-61
2021/09/25 08:01:46;;;;;;;;;;;;;;;18.91;100.00;99078.09;5100932;28;19920;-60
2021/09/25 08:04:11;;;;;;;;;;;;;;;18.82;100.00;99082.13;5102261;28;19935;-60
2021/09/25 08:06:37;;;;;;;;;;;;;;;19.19;100.00;99083.16;5066403;28;20293;-60
2021/09/25 08:09:02;;;;;;;;;;;;;;;19.08;100.00;99080.41;5097522;28;19916;-60
2021/09/25 08:11:27;;;;;;;;;;;;;;;18.92;100.00;99074.53;5096965;28;20393;-60
2021/09/25 08:13:53;;;;;;;;;;;;;;;19.01;100.00;99079.13;5096381;28;19922;-60
2021/09/25 08:16:18;;;;;;;;;;;;;;;18.75;100.00;99080.81;5098603;28;20344;-61
2021/09/25 08:18:43;;;;;;;;;;;;;;;19.02;100.00;99080.81;5098970;28;19967;-61
2021/09/25 08:21:09;;;;;;;;;;;;;;;19.11;100.00;99080.22;5095985;28;20544;-60
2021/09/25 08:23:34;;;;;;;;;;;;;;;19.11;100.00;99085.44;5098083;28;19959;-61
2021/09/25 08:26:00;;;;;;;;;;;;;;;19.29;100.00;99091.19;5099948;28;19915;-61
2021/09/25 08:28:26;;;;;;;;;;;;;;;19.36;100.00;99095.09;5099569;28;19977;-61
2021/09/25 08:30:52;;;;;;;;;;;;;;;19.29;100.00;99087.75;5100416;28;19916;-61
2021/09/25 08:33:17;;;;;;;;;;;;;;;19.10;100.00;99094.19;5100904;28;20439;-61
2021/09/25 08:35:43;;;;;;;;;;;;;;;18.95;100.00;99095.19;5096470;28;20297;-61
2021/09/25 08:38:08;;;;;;;;;;;;;;;18.92;100.00;99101.44;5080436;28;19989;-61
2021/09/25 08:40:33;;;;;;;;;;;;;;;19.37;100.00;99098.53;5100083;28;19915;-61
2021/09/25 08:42:59;;;;;;;;;;;;;;;19.34;100.00;99096.13;5100819;28;20292;-60
2021/09/25 08:45:24;;;;;;;;;;;;;;;19.78;100.00;99101.00;5100644;28;19916;-61
2021/09/25 08:47:50;;;;;;;;;;;;;;;19.93;100.00;99106.94;5099885;28;19916;-61
2021/09/25 08:50:16;;;;;;;;;;;;;;;20.15;100.00;99108.06;5098390;28;19912;-61
2021/09/25 08:52:41;;;;;;;;;;;;;;;20.09;100.00;99111.94;5098484;28;20425;-60
2021/09/25 08:55:07;;;;;;;;;;;;;;;20.06;100.00;99109.53;5092290;28;20454;-61
2021/09/25 08:57:33;;;;;;;;;;;;;;;19.55;100.00;99115.59;5073944;28;19924;-61
2021/09/25 09:00:17;;;;;;;;;;;;;;;19.44;100.00;99118.09;5072870;28;19934;-61
2021/09/25 09:02:42;;;;;;;;;;;;;;;19.11;100.00;99111.56;5092959;28;19958;-61
2021/09/25 09:05:08;;;;;;;;;;;;;;;19.42;100.00;99112.13;5072411;28;20085;-61
2021/09/25 09:07:33;;;;;;;;;;;;;;;19.65;100.00;99107.97;5071571;28;19923;-62
2021/09/25 09:09:58;;;;;;;;;;;;;;;19.92;100.00;99107.88;5073412;28;19912;-61
2021/09/25 09:12:25;;;;;;;;;;;;;;;19.65;100.00;99098.34;5073739;28;19968;-61
2021/09/25 09:14:50;;;;;;;;;;;;;;;19.89;100.00;99113.34;5073726;28;20081;-61
2021/09/25 09:17:17;;;;;;;;;;;;;;;19.99;100.00;99111.75;5052545;28;19924;-61
2021/09/25 09:19:42;;;;;;;;;;;;;;;20.08;100.00;99117.28;5073159;28;19916;-60
2021/09/25 09:22:08;;;;;;;;;;;;;;;19.75;100.00;99114.28;5072034;28;20297;-60
2021/09/25 09:24:41;;;;;;;;;;;;;;;19.99;100.00;99114.34;5072429;28;20011;-61
2021/09/25 09:27:21;;;;;;;;;;;;;;;19.65;100.00;99116.63;5073893;28;19919;-61
2021/09/25 09:29:47;;;;;;;;;;;;;;;20.06;100.00;99123.44;5072233;28;19992;-61
2021/09/25 09:32:13;;;;;;;;;;;;;;;19.84;100.00;99121.50;5073319;28;20448;-61
2021/09/25 09:34:39;;;;;;;;;;;;;;;20.03;100.00;99118.44;5075816;28;19916;-61
2021/09/25 09:37:11;;;;;;;;;;;;;;;20.26;100.00;99121.25;5075518;28;19916;-61
2021/09/25 09:39:36;;;;;;;;;;;;;;;19.99;100.00;99131.81;5077123;28;19929;-61
2021/09/25 09:42:01;;;;;;;;;;;;;;;20.14;100.00;99132.53;5059666;28;19921;-61
2021/09/25 09:44:31;;;;;;;;;;;;;;;20.20;100.00;99132.94;5072038;28;20010;-61
2021/09/25 09:47:01;;;;;;;;;;;;;;;19.97;100.00;99129.31;5058840;28;19920;-61
2021/09/25 09:49:27;;;;;;;;;;;;;;;20.66;100.00;99124.53;5075659;28;19974;-61
2021/09/25 09:51:53;;;;;;;;;;;;;;;20.74;100.00;99125.75;5059386;28;19912;-61
2021/09/25 09:54:18;;;;;;;;;;;;;;;20.75;100.00;99130.84;5059053;28;20369;-61
2021/09/25 09:56:44;;;;;;;;;;;;;;;20.68;100.00;99132.25;5075490;28;19916;-61
2021/09/25 09:59:09;;;;;;;;;;;;;;;20.50;100.00;99136.13;5074668;28;21109;-61
2021/09/25 10:01:36;;;;;;;;;;;;;;;20.85;100.00;99133.66;5074187;28;19916;-61
2021/09/25 10:04:02;;;;;;;;;;;;;;;20.36;100.00;99142.34;5072013;28;20443;-62
2021/09/25 10:06:27;;;;;;;;;;;;;;;20.19;100.00;99146.16;5091404;28;19928;-60
2021/09/25 10:08:52;;;;;;;;;;;;;;;19.96;100.00;99138.09;5090782;28;19922;-61
2021/09/25 10:11:18;;;;;;;;;;;;;;;21.26;100.00;99138.47;5053160;28;19920;-61
2021/09/25 10:13:45;;;;;;;;;;;;;;;21.20;100.00;99133.69;5085033;28;20327;-61
2021/09/25 10:16:11;;;;;;;;;;;;;;;21.27;100.00;99129.66;5091097;28;19915;-61
2021/09/25 10:18:36;;;;;;;;;;;;;;;21.54;100.00;99149.56;5094160;28;19924;-61
2021/09/25 10:21:02;;;;;;;;;;;;;;;21.38;100.00;99141.13;5075571;28;19916;-61
2021/09/25 10:23:28;;;;;;;;;;;;;;;21.38;100.00;99149.81;5097105;28;19916;-61
2021/09/25 10:25:53;;;;;;;;;;;;;;;21.72;100.00;99144.72;5079186;28;19916;-61
2021/09/25 10:28:26;;;;;;;;;;;;;;;21.57;100.00;99145.88;5078760;28;19916;-60
2021/09/25 10:30:52;;;;;;;;;;;;;;;21.52;100.00;99149.66;5099378;28;19964;-61
2021/09/25 10:33:17;;;;;;;;;;;;;;;21.87;100.00;99150.56;5080420;28;20015;-60
2021/09/25 10:35:43;;;;;;;;;;;;;;;22.16;100.00;99152.75;5097581;28;19923;-61
2021/09/25 10:38:09;;;;;;;;;;;;;;;22.46;100.00;99150.34;5096382;28;20368;-61
2021/09/25 10:40:35;;;;;;;;;;;;;;;22.42;100.00;99138.47;5079067;28;19912;-61
2021/09/25 10:43:00;;;;;;;;;;;;;;;21.57;100.00;99146.69;5098641;28;20042;-61
2021/09/25 10:45:30;;;;;;;;;;;;;;;21.74;100.00;99145.44;5097143;28;20010;-61
2021/09/25 10:48:06;;;;;;;;;;;;;;;21.87;100.00;99140.94;5097838;28;20497;-61
2021/09/25 10:50:33;;;;;;;;;;;;;;;20.74;100.00;99150.13;5096852;28;19923;-61
2021/09/25 10:53:06;;;;;;;;;;;;;;;20.98;100.00;99151.91;5078696;28;23868;-61
2021/09/25 10:55:31;;;;;;;;;;;;;;;22.05;100.00;99136.03;5097541;28;20365;-61
2021/09/25 10:58:15;;;;;;;;;;;;;;;21.82;100.00;99135.19;5097074;28;19923;-60
2021/09/25 11:00:47;;;;;;;;;;;;;;;22.38;100.00;99136.19;5099042;28;20412;-61
2021/09/25 11:03:32;;;;;;;;;;;;;;;22.70;100.00;99131.00;5099045;28;19911;-61
2021/09/25 11:06:04;;;;;;;;;;;;;;;23.03;100.00;99131.88;5097892;28;19927;-61
2021/09/25 11:08:30;;;;;;;;;;;;;;;22.57;100.00;99136.41;5095891;28;19937;-61
2021/09/25 11:11:05;;;;;;;;;;;;;;;22.03;100.00;99142.34;5096847;28;20969;-61
2021/09/25 11:13:51;;;;;;;;;;;;;;;21.93;100.00;99139.59;5076533;28;19919;-61
2021/09/25 11:16:16;;;;;;;;;;;;;;;22.53;100.00;99135.81;5094859;28;19911;-61
2021/09/25 11:18:50;;;;;;;;;;;;;;;22.80;100.00;99145.06;5095091;28;19922;-61
2021/09/25 11:21:16;;;;;;;;;;;;;;;22.42;100.00;99146.34;5082306;28;20398;-61
2021/09/25 11:23:44;;;;;;;;;;;;;;;21.49;100.00;99146.44;5087406;28;19919;-61
2021/09/25 11:26:10;;;;;;;;;;;;;;;21.04;100.00;99135.75;5077574;28;19912;-61
2021/09/25 11:28:36;;;;;;;;;;;;;;;22.10;100.00;99133.91;5079446;28;19922;-61
2021/09/25 11:31:09;;;;;;;;;;;;;;;21.65;100.00;99133.03;5079100;28;20377;-61
2021/09/25 11:33:38;;;;;;;;;;;;;;;22.71;100.00;99127.41;5099159;28;20383;-61
2021/09/25 11:36:10;;;;;;;;;;;;;;;22.69;100.00;99124.06;5098719;28;19912;-61
2021/09/25 11:38:44;;;;;;;;;;;;;;;21.62;100.00;99123.63;5097635;28;20368;-61
2021/09/25 11:41:14;;;;;;;;;;;;;;;22.80;100.00;99116.16;5081640;28;19923;-61
2021/09/25 11:43:39;;;;;;;;;;;;;;;23.78;100.00;99118.59;5099256;28;19923;-61
2021/09/25 11:46:06;;;;;;;;;;;;;;;22.26;100.00;99109.13;5097790;28;19916;-60
2021/09/25 11:48:32;;;;;;;;;;;;;;;22.81;100.00;99119.63;5098706;28;20369;-61
2021/09/25 11:50:58;;;;;;;;;;;;;;;22.28;100.00;99113.31;5081772;28;19923;-61
2021/09/25 11:53:26;;;;;;;;;;;;;;;22.26;100.00;99116.97;5079788;28;19922;-61
2021/09/25 11:55:51;;;;;;;;;;;;;;;22.40;100.00;99118.50;5096829;28;19922;-61
2021/09/25 11:58:18;;;;;;;;;;;;;;;22.93;100.00;99126.53;5100208;28;19919;-61
2021/09/25 12:00:49;;;;;;;;;;;;;;;23.15;100.00;99120.38;5097938;28;19916;-61
2021/09/25 12:03:14;;;;;;;;;;;;;;;22.92;100.00;99115.19;5096694;28;19915;-60
2021/09/25 12:05:47;;;;;;;;;;;;;;;23.84;100.00;99108.53;5096264;28;20377;-60
2021/09/25 12:08:13;;;;;;;;;;;;;;;24.07;100.00;99112.66;5096068;28;20384;-61
2021/09/25 12:10:43;;;;;;;;;;;;;;;22.39;100.00;99104.56;5095438;28;20344;-61
2021/09/25 12:13:17;;;;;;;;;;;;;;;21.42;100.00;99105.94;5096859;28;19923;-60
2021/09/25 12:15:43;;;;;;;;;;;;;;;21.95;100.00;99103.63;5095656;28;19915;-60
2021/09/25 12:18:11;;;;;;;;;;;;;;;22.52;100.00;99102.63;5069991;28;20356;-61
2021/09/25 12:20:36;;;;;;;;;;;;;;;23.18;100.00;99096.47;5092753;28;19977;-61
2021/09/25 12:23:04;;;;;;;;;;;;;;;24.00;100.00;99101.00;5092942;28;19923;-61
2021/09/25 12:25:29;;;;;;;;;;;;;;;22.59;100.00;99096.91;5072724;28;20031;-61
2021/09/25 12:27:54;;;;;;;;;;;;;;;23.26;100.00;99096.66;5098091;28;20352;-60
2021/09/25 12:30:19;;;;;;;;;;;;;;;22.74;100.00;99091.25;5095257;28;19937;-61